KRNC/RNC METAR and TAF weather

Enter ICAO airport designator
Station Type Date Time Source
KRNC METAR 2021/04/14 20:55 UTC NOAA

KRNC 142055Z AUTO 36010KT 10SM BKN049 OVC055 15/10 A3002 RMK A01


Station Type Date Time Source
KRNC Decoded METAR 2021/04/14 20:55 UTC NOAA

Station name not available
Apr 14, 2021 - 04:55 PM EDT / 2021.04.14 2055 UTC
Wind: from the N (360 degrees) at 12 MPH (10 KT):0
Visibility: 10 mile(s):0
Sky conditions: overcast
Temperature: 59 F (15 C)
Dew Point: 50 F (10 C)
Relative Humidity: 72%
Pressure (altimeter): 30.02 in. Hg (1016 hPa)
ob: KRNC 142055Z AUTO 36010KT 10SM BKN049 OVC055 15/10 A3002 RMK A01
cycle: 21

Station Type Date Time Source
KRNC TAF 2009/08/31 19:45 UTC NOAA

METAR KRNC 311945Z AUTO 35008KT 10SM CLR 25/12 A3011
RMK AO1 T02500116 $

Example: see airport list